sensor_id;sensor_type;location;lat;lon;timestamp;pressure;altitude;pressure_sealevel;temperature;humidity
64095;BME280;50353;51.420;5.682;2023-02-05T00:02:20;103437.41;;;8.69;96.74
64095;BME280;50353;51.420;5.682;2023-02-05T00:04:45;103426.91;;;8.66;96.82
64095;BME280;50353;51.420;5.682;2023-02-05T00:07:10;103406.63;;;8.71;96.56
64095;BME280;50353;51.420;5.682;2023-02-05T00:09:36;103399.78;;;8.52;96.91
64095;BME280;50353;51.420;5.682;2023-02-05T00:12:05;103412.25;;;8.36;98.67
64095;BME280;50353;51.420;5.682;2023-02-05T00:14:30;103412.50;;;8.05;99.29
64095;BME280;50353;51.420;5.682;2023-02-05T00:16:56;103409.78;;;8.12;100.00
64095;BME280;50353;51.420;5.682;2023-02-05T00:19:21;103412.34;;;8.20;99.75
64095;BME280;50353;51.420;5.682;2023-02-05T00:21:46;103406.94;;;8.34;98.87
64095;BME280;50353;51.420;5.682;2023-02-05T00:24:12;103408.66;;;8.38;98.05
64095;BME280;50353;51.420;5.682;2023-02-05T00:26:37;103401.59;;;8.46;98.50
64095;BME280;50353;51.420;5.682;2023-02-05T00:29:03;103392.84;;;8.41;98.85
64095;BME280;50353;51.420;5.682;2023-02-05T00:31:29;103386.69;;;8.45;98.46
64095;BME280;50353;51.420;5.682;2023-02-05T00:33:56;103382.47;;;8.24;99.65
64095;BME280;50353;51.420;5.682;2023-02-05T00:36:22;103372.81;;;8.22;100.00
64095;BME280;50353;51.420;5.682;2023-02-05T00:38:48;103371.16;;;8.13;100.00
64095;BME280;50353;51.420;5.682;2023-02-05T00:41:14;103363.88;;;8.40;99.82
64095;BME280;50353;51.420;5.682;2023-02-05T00:43:40;103359.53;;;8.33;99.62
64095;BME280;50353;51.420;5.682;2023-02-05T00:46:05;103358.94;;;8.01;100.00
64095;BME280;50353;51.420;5.682;2023-02-05T00:48:31;103350.19;;;8.01;100.00
64095;BME280;50353;51.420;5.682;2023-02-05T00:50:56;103354.56;;;7.99;100.00
64095;BME280;50353;51.420;5.682;2023-02-05T00:53:23;103351.75;;;8.20;100.00
64095;BME280;50353;51.420;5.682;2023-02-05T00:55:49;103360.50;;;8.25;100.00
64095;BME280;50353;51.420;5.682;2023-02-05T00:58:14;103360.44;;;8.33;100.00
64095;BME280;50353;51.420;5.682;2023-02-05T01:00:40;103354.03;;;8.59;98.71
64095;BME280;50353;51.420;5.682;2023-02-05T01:03:05;103350.63;;;8.44;99.50
64095;BME280;50353;51.420;5.682;2023-02-05T01:05:32;103339.88;;;8.66;97.81
64095;BME280;50353;51.420;5.682;2023-02-05T01:07:57;103344.06;;;8.84;96.65
64095;BME280;50353;51.420;5.682;2023-02-05T01:10:23;103355.56;;;8.78;96.88
64095;BME280;50353;51.420;5.682;2023-02-05T01:12:49;103346.81;;;8.75;97.09
64095;BME280;50353;51.420;5.682;2023-02-05T01:15:14;103350.34;;;8.75;97.13
64095;BME280;50353;51.420;5.682;2023-02-05T01:17:40;103351.25;;;8.73;97.17
64095;BME280;50353;51.420;5.682;2023-02-05T01:20:06;103348.50;;;8.80;97.10
64095;BME280;50353;51.420;5.682;2023-02-05T01:22:31;103352.31;;;8.55;98.43
64095;BME280;50353;51.420;5.682;2023-02-05T01:24:57;103352.06;;;8.75;97.77
64095;BME280;50353;51.420;5.682;2023-02-05T01:27:23;103345.19;;;8.65;97.85
64095;BME280;50353;51.420;5.682;2023-02-05T01:29:49;103337.22;;;8.69;97.06
64095;BME280;50353;51.420;5.682;2023-02-05T01:32:14;103343.31;;;8.74;96.80
64095;BME280;50353;51.420;5.682;2023-02-05T01:34:40;103332.94;;;8.59;97.98
64095;BME280;50353;51.420;5.682;2023-02-05T01:37:05;103345.06;;;8.72;97.35
64095;BME280;50353;51.420;5.682;2023-02-05T01:39:30;103342.56;;;8.61;98.04
64095;BME280;50353;51.420;5.682;2023-02-05T01:41:56;103350.84;;;8.23;100.00
64095;BME280;50353;51.420;5.682;2023-02-05T01:44:22;103356.28;;;8.04;100.00
64095;BME280;50353;51.420;5.682;2023-02-05T01:46:52;103361.81;;;7.75;100.00
64095;BME280;50353;51.420;5.682;2023-02-05T01:49:22;103353.97;;;7.66;100.00
64095;BME280;50353;51.420;5.682;2023-02-05T01:51:50;103352.88;;;7.93;100.00
64095;BME280;50353;51.420;5.682;2023-02-05T01:54:16;103363.41;;;7.94;100.00
64095;BME280;50353;51.420;5.682;2023-02-05T01:56:54;103356.31;;;8.01;100.00
64095;BME280;50353;51.420;5.682;2023-02-05T01:59:25;103352.97;;;7.81;100.00
64095;BME280;50353;51.420;5.682;2023-02-05T02:01:52;103371.38;;;7.87;100.00
64095;BME280;50353;51.420;5.682;2023-02-05T02:04:42;103355.50;;;7.98;100.00
64095;BME280;50353;51.420;5.682;2023-02-05T02:07:12;103358.91;;;8.07;100.00
64095;BME280;50353;51.420;5.682;2023-02-05T02:09:39;103350.97;;;8.10;100.00
64095;BME280;50353;51.420;5.682;2023-02-05T02:12:06;103363.19;;;8.21;100.00
64095;BME280;50353;51.420;5.682;2023-02-05T02:14:33;103363.25;;;8.11;100.00
64095;BME280;50353;51.420;5.682;2023-02-05T02:17:01;103359.56;;;8.29;100.00
64095;BME280;50353;51.420;5.682;2023-02-05T02:19:31;103356.22;;;8.12;100.00
64095;BME280;50353;51.420;5.682;2023-02-05T02:22:03;103350.22;;;7.99;100.00
64095;BME280;50353;51.420;5.682;2023-02-05T02:24:47;103353.66;;;8.03;100.00
64095;BME280;50353;51.420;5.682;2023-02-05T02:29:57;103341.31;;;8.09;100.00
64095;BME280;50353;51.420;5.682;2023-02-05T02:35:20;103329.59;;;8.41;100.00
64095;BME280;50353;51.420;5.682;2023-02-05T02:40:23;103336.75;;;8.27;100.00
64095;BME280;50353;51.420;5.682;2023-02-05T02:45:28;103325.94;;;8.58;100.00
64095;BME280;50353;51.420;5.682;2023-02-05T02:47:58;103324.31;;;8.43;100.00
64095;BME280;50353;51.420;5.682;2023-02-05T02:50:31;103318.06;;;8.53;100.00
64095;BME280;50353;51.420;5.682;2023-02-05T02:53:02;103313.53;;;8.66;99.03
64095;BME280;50353;51.420;5.682;2023-02-05T02:55:32;103314.47;;;8.60;98.55
64095;BME280;50353;51.420;5.682;2023-02-05T02:58:00;103307.75;;;8.28;100.00
64095;BME280;50353;51.420;5.682;2023-02-05T03:00:26;103321.59;;;8.52;99.69
64095;BME280;50353;51.420;5.682;2023-02-05T03:02:59;103319.78;;;8.56;99.76
64095;BME280;50353;51.420;5.682;2023-02-05T03:05:26;103310.22;;;8.49;100.00
64095;BME280;50353;51.420;5.682;2023-02-05T03:07:58;103308.38;;;8.55;98.91
64095;BME280;50353;51.420;5.682;2023-02-05T03:10:29;103327.72;;;8.54;99.45
64095;BME280;50353;51.420;5.682;2023-02-05T03:12:56;103321.88;;;8.21;100.00
64095;BME280;50353;51.420;5.682;2023-02-05T03:15:22;103303.28;;;8.35;100.00
64095;BME280;50353;51.420;5.682;2023-02-05T03:17:49;103298.59;;;7.78;100.00
64095;BME280;50353;51.420;5.682;2023-02-05T03:20:20;103297.41;;;8.08;100.00
64095;BME280;50353;51.420;5.682;2023-02-05T03:22:46;103306.88;;;8.28;100.00
64095;BME280;50353;51.420;5.682;2023-02-05T03:25:12;103309.34;;;8.46;100.00
64095;BME280;50353;51.420;5.682;2023-02-05T03:27:38;103311.47;;;8.10;100.00
64095;BME280;50353;51.420;5.682;2023-02-05T03:30:04;103304.16;;;8.37;100.00
64095;BME280;50353;51.420;5.682;2023-02-05T03:40:58;103301.09;;;7.90;100.00
64095;BME280;50353;51.420;5.682;2023-02-05T03:44:04;103297.31;;;8.18;100.00
64095;BME280;50353;51.420;5.682;2023-02-05T03:47:17;103300.94;;;8.09;100.00
64095;BME280;50353;51.420;5.682;2023-02-05T03:49:56;103318.53;;;8.05;99.84
64095;BME280;50353;51.420;5.682;2023-02-05T03:52:30;103302.22;;;7.61;100.00
64095;BME280;50353;51.420;5.682;2023-02-05T03:55:10;103317.69;;;8.02;100.00
64095;BME280;50353;51.420;5.682;2023-02-05T03:57:43;103318.84;;;7.68;100.00
64095;BME280;50353;51.420;5.682;2023-02-05T04:00:12;103315.34;;;7.65;100.00
64095;BME280;50353;51.420;5.682;2023-02-05T04:02:38;103317.91;;;7.75;100.00
64095;BME280;50353;51.420;5.682;2023-02-05T04:05:04;103328.38;;;7.83;100.00
64095;BME280;50353;51.420;5.682;2023-02-05T04:07:29;103321.34;;;7.87;99.65
64095;BME280;50353;51.420;5.682;2023-02-05T04:09:54;103323.06;;;7.88;100.00
64095;BME280;50353;51.420;5.682;2023-02-05T04:12:20;103316.91;;;7.93;99.23
64095;BME280;50353;51.420;5.682;2023-02-05T04:14:45;103315.09;;;7.97;98.68
64095;BME280;50353;51.420;5.682;2023-02-05T04:17:11;103327.38;;;8.00;98.97
64095;BME280;50353;51.420;5.682;2023-02-05T04:19:36;103331.88;;;7.87;98.60
64095;BME280;50353;51.420;5.682;2023-02-05T04:22:02;103333.00;;;7.53;99.67
64095;BME280;50353;51.420;5.682;2023-02-05T04:24:27;103343.56;;;7.47;100.00
64095;BME280;50353;51.420;5.682;2023-02-05T04:26:53;103352.44;;;7.35;100.00
64095;BME280;50353;51.420;5.682;2023-02-05T04:29:18;103340.06;;;7.47;100.00
64095;BME280;50353;51.420;5.682;2023-02-05T04:31:43;103351.31;;;7.70;100.00
64095;BME280;50353;51.420;5.682;2023-02-05T04:34:08;103349.59;;;7.63;97.92
64095;BME280;50353;51.420;5.682;2023-02-05T04:36:34;103354.88;;;7.60;97.26
64095;BME280;50353;51.420;5.682;2023-02-05T04:38:59;103351.25;;;7.76;97.84
64095;BME280;50353;51.420;5.682;2023-02-05T04:41:24;103345.31;;;7.51;99.01
64095;BME280;50353;51.420;5.682;2023-02-05T04:43:50;103342.69;;;7.51;98.66
64095;BME280;50353;51.420;5.682;2023-02-05T04:46:15;103328.50;;;7.66;97.91
64095;BME280;50353;51.420;5.682;2023-02-05T04:48:43;103339.00;;;7.72;95.53
64095;BME280;50353;51.420;5.682;2023-02-05T04:51:10;103338.28;;;7.47;96.73
64095;BME280;50353;51.420;5.682;2023-02-05T04:53:36;103345.44;;;7.25;99.38
64095;BME280;50353;51.420;5.682;2023-02-05T04:56:04;103341.63;;;7.72;97.67
64095;BME280;50353;51.420;5.682;2023-02-05T04:58:29;103336.47;;;7.60;97.33
64095;BME280;50353;51.420;5.682;2023-02-05T05:00:55;103326.56;;;7.90;96.09
64095;BME280;50353;51.420;5.682;2023-02-05T05:03:20;103333.56;;;7.94;95.90
64095;BME280;50353;51.420;5.682;2023-02-05T05:05:45;103329.94;;;8.04;95.01
64095;BME280;50353;51.420;5.682;2023-02-05T05:08:11;103334.28;;;8.11;94.13
64095;BME280;50353;51.420;5.682;2023-02-05T05:10:37;103329.84;;;8.18;93.67
64095;BME280;50353;51.420;5.682;2023-02-05T05:13:02;103328.34;;;7.88;95.21
64095;BME280;50353;51.420;5.682;2023-02-05T05:15:27;103329.72;;;8.29;93.50
64095;BME280;50353;51.420;5.682;2023-02-05T05:17:53;103329.97;;;8.01;95.03
64095;BME280;50353;51.420;5.682;2023-02-05T05:20:18;103325.53;;;8.08;94.15
64095;BME280;50353;51.420;5.682;2023-02-05T05:22:43;103326.50;;;7.96;94.68
64095;BME280;50353;51.420;5.682;2023-02-05T05:25:09;103329.50;;;7.53;95.90
64095;BME280;50353;51.420;5.682;2023-02-05T05:27:34;103325.06;;;7.61;96.47
64095;BME280;50353;51.420;5.682;2023-02-05T05:29:59;103317.16;;;7.61;96.97
64095;BME280;50353;51.420;5.682;2023-02-05T05:32:24;103311.75;;;7.78;95.90
64095;BME280;50353;51.420;5.682;2023-02-05T05:34:50;103307.44;;;7.66;96.74
64095;BME280;50353;51.420;5.682;2023-02-05T05:37:15;103316.22;;;7.68;96.54
64095;BME280;50353;51.420;5.682;2023-02-05T05:39:40;103308.09;;;7.94;95.12
64095;BME280;50353;51.420;5.682;2023-02-05T05:42:24;103315.06;;;8.00;94.39
64095;BME280;50353;51.420;5.682;2023-02-05T05:45:09;103315.16;;;7.91;94.24
64095;BME280;50353;51.420;5.682;2023-02-05T05:47:34;103311.16;;;7.37;97.50
64095;BME280;50353;51.420;5.682;2023-02-05T05:49:59;103314.25;;;7.95;95.34
64095;BME280;50353;51.420;5.682;2023-02-05T05:52:24;103306.25;;;8.06;94.44
64095;BME280;50353;51.420;5.682;2023-02-05T05:54:50;103309.09;;;7.83;94.96
64095;BME280;50353;51.420;5.682;2023-02-05T05:57:15;103308.78;;;8.17;94.08
64095;BME280;50353;51.420;5.682;2023-02-05T05:59:40;103313.59;;;7.67;95.31
64095;BME280;50353;51.420;5.682;2023-02-05T06:02:06;103305.66;;;7.71;96.47
64095;BME280;50353;51.420;5.682;2023-02-05T06:04:31;103311.00;;;7.65;98.14
64095;BME280;50353;51.420;5.682;2023-02-05T06:06:56;103318.00;;;7.63;98.32
64095;BME280;50353;51.420;5.682;2023-02-05T06:09:23;103312.53;;;7.88;96.48
64095;BME280;50353;51.420;5.682;2023-02-05T06:11:49;103305.66;;;7.71;97.80
64095;BME280;50353;51.420;5.682;2023-02-05T06:14:15;103305.91;;;7.40;100.00
64095;BME280;50353;51.420;5.682;2023-02-05T06:16:40;103307.44;;;7.66;99.04
64095;BME280;50353;51.420;5.682;2023-02-05T06:19:05;103298.78;;;7.55;99.69
64095;BME280;50353;51.420;5.682;2023-02-05T06:21:31;103289.84;;;7.74;99.04
64095;BME280;50353;51.420;5.682;2023-02-05T06:23:56;103280.41;;;7.45;100.00
64095;BME280;50353;51.420;5.682;2023-02-05T06:26:21;103284.50;;;7.82;98.10
64095;BME280;50353;51.420;5.682;2023-02-05T06:28:47;103278.31;;;7.88;97.46
64095;BME280;50353;51.420;5.682;2023-02-05T06:31:12;103275.69;;;7.86;98.10
64095;BME280;50353;51.420;5.682;2023-02-05T06:33:37;103277.78;;;7.45;100.00
64095;BME280;50353;51.420;5.682;2023-02-05T06:36:03;103273.41;;;7.43;100.00
64095;BME280;50353;51.420;5.682;2023-02-05T06:38:28;103277.69;;;7.58;100.00
64095;BME280;50353;51.420;5.682;2023-02-05T06:40:53;103292.44;;;7.79;97.38
64095;BME280;50353;51.420;5.682;2023-02-05T06:43:18;103296.16;;;7.52;99.95
64095;BME280;50353;51.420;5.682;2023-02-05T06:45:44;103287.28;;;7.62;98.74
64095;BME280;50353;51.420;5.682;2023-02-05T06:48:09;103300.56;;;7.48;99.62
64095;BME280;50353;51.420;5.682;2023-02-05T06:50:34;103303.34;;;7.31;99.81
64095;BME280;50353;51.420;5.682;2023-02-05T06:53:00;103317.28;;;7.42;100.00
64095;BME280;50353;51.420;5.682;2023-02-05T06:55:25;103325.31;;;7.21;100.00
64095;BME280;50353;51.420;5.682;2023-02-05T06:57:50;103322.47;;;7.53;99.66
64095;BME280;50353;51.420;5.682;2023-02-05T07:00:16;103315.69;;;7.21;100.00
64095;BME280;50353;51.420;5.682;2023-02-05T07:02:42;103318.22;;;7.35;100.00
64095;BME280;50353;51.420;5.682;2023-02-05T07:05:08;103338.41;;;7.30;100.00
64095;BME280;50353;51.420;5.682;2023-02-05T07:07:33;103341.13;;;7.18;100.00
64095;BME280;50353;51.420;5.682;2023-02-05T07:09:59;103349.03;;;7.16;100.00
64095;BME280;50353;51.420;5.682;2023-02-05T07:12:24;103366.69;;;6.80;100.00
64095;BME280;50353;51.420;5.682;2023-02-05T07:14:50;103376.34;;;6.78;100.00
64095;BME280;50353;51.420;5.682;2023-02-05T07:17:15;103374.59;;;6.83;100.00
64095;BME280;50353;51.420;5.682;2023-02-05T07:19:40;103380.75;;;6.65;100.00
64095;BME280;50353;51.420;5.682;2023-02-05T07:22:05;103390.41;;;6.58;100.00
64095;BME280;50353;51.420;5.682;2023-02-05T07:24:31;103401.81;;;6.62;100.00
64095;BME280;50353;51.420;5.682;2023-02-05T07:26:56;103397.47;;;6.39;100.00
64095;BME280;50353;51.420;5.682;2023-02-05T07:29:21;103407.06;;;6.60;99.34
64095;BME280;50353;51.420;5.682;2023-02-05T07:31:50;103425.47;;;6.53;98.40
64095;BME280;50353;51.420;5.682;2023-02-05T07:34:16;103428.09;;;6.57;97.72
64095;BME280;50353;51.420;5.682;2023-02-05T07:36:41;103410.63;;;6.39;95.31
64095;BME280;50353;51.420;5.682;2023-02-05T07:39:07;103421.09;;;6.44;96.34
64095;BME280;50353;51.420;5.682;2023-02-05T07:41:33;103431.63;;;6.19;95.51
64095;BME280;50353;51.420;5.682;2023-02-05T07:43:59;103443.88;;;6.19;96.30
64095;BME280;50353;51.420;5.682;2023-02-05T07:46:24;103443.00;;;6.23;96.35
64095;BME280;50353;51.420;5.682;2023-02-05T07:48:50;103451.75;;;6.13;96.25
64095;BME280;50353;51.420;5.682;2023-02-05T07:51:17;103471.88;;;6.07;95.53
64095;BME280;50353;51.420;5.682;2023-02-05T07:53:43;103473.66;;;6.19;94.22
64095;BME280;50353;51.420;5.682;2023-02-05T07:56:09;103479.75;;;6.21;94.55
64095;BME280;50353;51.420;5.682;2023-02-05T07:58:34;103480.66;;;6.56;94.75
64095;BME280;50353;51.420;5.682;2023-02-05T08:01:01;103478.03;;;6.37;94.37
64095;BME280;50353;51.420;5.682;2023-02-05T08:03:27;103482.41;;;6.57;94.60
64095;BME280;50353;51.420;5.682;2023-02-05T08:05:53;103488.53;;;6.50;93.30
64095;BME280;50353;51.420;5.682;2023-02-05T08:08:18;103503.44;;;6.52;93.66
64095;BME280;50353;51.420;5.682;2023-02-05T08:10:43;103501.66;;;6.76;93.20
64095;BME280;50353;51.420;5.682;2023-02-05T08:13:09;103516.59;;;6.60;94.51
64095;BME280;50353;51.420;5.682;2023-02-05T08:15:37;103500.81;;;6.52;95.61
64095;BME280;50353;51.420;5.682;2023-02-05T08:18:03;103514.81;;;6.34;96.51
64095;BME280;50353;51.420;5.682;2023-02-05T08:20:28;103512.16;;;6.31;96.53
64095;BME280;50353;51.420;5.682;2023-02-05T08:22:53;103513.06;;;6.41;97.10
64095;BME280;50353;51.420;5.682;2023-02-05T08:25:18;103512.19;;;6.59;95.73
64095;BME280;50353;51.420;5.682;2023-02-05T08:27:44;103517.47;;;6.57;96.03
64095;BME280;50353;51.420;5.682;2023-02-05T08:30:13;103502.50;;;6.97;94.88
64095;BME280;50353;51.420;5.682;2023-02-05T08:32:38;103501.66;;;6.85;94.53
64095;BME280;50353;51.420;5.682;2023-02-05T08:35:04;103512.16;;;6.88;94.66
64095;BME280;50353;51.420;5.682;2023-02-05T08:37:30;103502.53;;;6.89;94.61
64095;BME280;50353;51.420;5.682;2023-02-05T08:39:55;103512.19;;;6.68;95.21
64095;BME280;50353;51.420;5.682;2023-02-05T08:42:20;103520.03;;;6.87;93.92
64095;BME280;50353;51.420;5.682;2023-02-05T08:44:46;103511.28;;;6.96;92.92
64095;BME280;50353;51.420;5.682;2023-02-05T08:47:13;103520.97;;;6.75;92.18
64095;BME280;50353;51.420;5.682;2023-02-05T08:49:38;103516.50;;;7.17;91.86
64095;BME280;50353;51.420;5.682;2023-02-05T08:52:03;103524.41;;;7.11;90.60
64095;BME280;50353;51.420;5.682;2023-02-05T08:54:29;103511.19;;;7.25;89.66
64095;BME280;50353;51.420;5.682;2023-02-05T08:56:54;103517.38;;;7.11;90.54
64095;BME280;50353;51.420;5.682;2023-02-05T08:59:19;103517.41;;;6.98;89.86
64095;BME280;50353;51.420;5.682;2023-02-05T09:01:45;103534.91;;;7.14;90.08
64095;BME280;50353;51.420;5.682;2023-02-05T09:04:15;103521.78;;;7.00;90.61
64095;BME280;50353;51.420;5.682;2023-02-05T09:06:41;103508.66;;;6.88;88.53
64095;BME280;50353;51.420;5.682;2023-02-05T09:09:07;103535.78;;;7.18;86.52
64095;BME280;50353;51.420;5.682;2023-02-05T09:11:32;103529.69;;;6.91;87.73
64095;BME280;50353;51.420;5.682;2023-02-05T09:13:58;103534.00;;;7.26;87.63
64095;BME280;50353;51.420;5.682;2023-02-05T09:16:24;103528.75;;;7.17;86.89
64095;BME280;50353;51.420;5.682;2023-02-05T09:18:50;103534.06;;;6.95;87.30
64095;BME280;50353;51.420;5.682;2023-02-05T09:21:15;103538.47;;;6.93;88.01
64095;BME280;50353;51.420;5.682;2023-02-05T09:23:40;103534.06;;;6.83;87.87
64095;BME280;50353;51.420;5.682;2023-02-05T09:26:06;103542.84;;;6.88;87.08
64095;BME280;50353;51.420;5.682;2023-02-05T09:28:34;103527.88;;;7.11;87.99
64095;BME280;50353;51.420;5.682;2023-02-05T09:31:05;103538.38;;;7.30;86.94
64095;BME280;50353;51.420;5.682;2023-02-05T09:33:31;103533.13;;;7.24;85.42
64095;BME280;50353;51.420;5.682;2023-02-05T09:35:57;103537.53;;;7.13;86.51
64095;BME280;50353;51.420;5.682;2023-02-05T09:38:22;103530.53;;;7.05;87.14
64095;BME280;50353;51.420;5.682;2023-02-05T09:40:58;103548.06;;;7.14;86.14
64095;BME280;50353;51.420;5.682;2023-02-05T09:47:14;103523.50;;;7.14;86.40
64095;BME280;50353;51.420;5.682;2023-02-05T09:49:17;103548.09;;;7.06;86.85
64095;BME280;50353;51.420;5.682;2023-02-05T09:51:46;103533.16;;;7.07;87.85
64095;BME280;50353;51.420;5.682;2023-02-05T09:54:56;103552.47;;;6.93;87.48
64095;BME280;50353;51.420;5.682;2023-02-05T09:57:11;103540.16;;;7.20;86.15
64095;BME280;50353;51.420;5.682;2023-02-05T09:59:41;103550.69;;;7.16;87.53
64095;BME280;50353;51.420;5.682;2023-02-05T10:02:21;103562.09;;;7.08;87.30
64095;BME280;50353;51.420;5.682;2023-02-05T10:04:51;103552.47;;;7.10;87.78
64095;BME280;50353;51.420;5.682;2023-02-05T10:07:34;103559.47;;;7.05;86.70
64095;BME280;50353;51.420;5.682;2023-02-05T10:10:27;103553.34;;;6.89;88.29
64095;BME280;50353;51.420;5.682;2023-02-05T10:13:25;103536.63;;;7.20;87.75
64095;BME280;50353;51.420;5.682;2023-02-05T10:16:16;103541.94;;;7.14;86.90
64095;BME280;50353;51.420;5.682;2023-02-05T10:19:14;103515.59;;;7.26;86.81
64095;BME280;50353;51.420;5.682;2023-02-05T10:22:06;103541.84;;;7.41;85.79
64095;BME280;50353;51.420;5.682;2023-02-05T10:24:49;103525.22;;;7.28;86.07
64095;BME280;50353;51.420;5.682;2023-02-05T10:27:21;103537.53;;;7.11;86.87
64095;BME280;50353;51.420;5.682;2023-02-05T10:32:22;103521.72;;;7.26;86.99
64095;BME280;50353;51.420;5.682;2023-02-05T10:34:58;103519.94;;;7.35;85.05
64095;BME280;50353;51.420;5.682;2023-02-05T10:37:42;103520.81;;;7.35;86.15
64095;BME280;50353;51.420;5.682;2023-02-05T10:40:11;103505.94;;;7.28;85.80
64095;BME280;50353;51.420;5.682;2023-02-05T10:42:41;103535.75;;;7.30;85.58
64095;BME280;50353;51.420;5.682;2023-02-05T10:47:47;103533.97;;;7.40;85.52
64095;BME280;50353;51.420;5.682;2023-02-05T10:50:24;103531.34;;;7.37;85.24
64095;BME280;50353;51.420;5.682;2023-02-05T10:52:51;103532.19;;;7.43;85.66
64095;BME280;50353;51.420;5.682;2023-02-05T10:55:16;103527.78;;;7.53;83.31
64095;BME280;50353;51.420;5.682;2023-02-05T10:57:42;103525.16;;;7.50;84.37
64095;BME280;50353;51.420;5.682;2023-02-05T11:00:34;103511.94;;;7.58;82.28
64095;BME280;50353;51.420;5.682;2023-02-05T11:02:59;103534.75;;;7.67;82.98
64095;BME280;50353;51.420;5.682;2023-02-05T11:05:30;103529.47;;;7.62;82.75
64095;BME280;50353;51.420;5.682;2023-02-05T11:08:00;103536.56;;;7.51;82.99
64095;BME280;50353;51.420;5.682;2023-02-05T11:10:32;103542.72;;;7.47;82.43
64095;BME280;50353;51.420;5.682;2023-02-05T11:13:16;103549.72;;;7.48;81.63
64095;BME280;50353;51.420;5.682;2023-02-05T11:16:02;103556.75;;;7.42;80.26
64095;BME280;50353;51.420;5.682;2023-02-05T11:18:33;103529.50;;;7.59;78.52
64095;BME280;50353;51.420;5.682;2023-02-05T11:21:03;103536.53;;;7.58;78.04
64095;BME280;50353;51.420;5.682;2023-02-05T11:23:29;103536.50;;;7.65;80.21
64095;BME280;50353;51.420;5.682;2023-02-05T11:28:32;103549.59;;;7.82;80.13
64095;BME280;50353;51.420;5.682;2023-02-05T11:33:43;103539.03;;;7.86;78.11
64095;BME280;50353;51.420;5.682;2023-02-05T11:36:15;103547.81;;;7.84;79.05
64095;BME280;50353;51.420;5.682;2023-02-05T11:38:44;103535.53;;;7.86;78.52
64095;BME280;50353;51.420;5.682;2023-02-05T11:41:13;103548.69;;;7.86;79.07
64095;BME280;50353;51.420;5.682;2023-02-05T11:43:45;103549.63;;;7.78;80.19
64095;BME280;50353;51.420;5.682;2023-02-05T11:46:19;103556.69;;;7.70;78.69
64095;BME280;50353;51.420;5.682;2023-02-05T11:53:59;103539.16;;;7.60;76.79
64095;BME280;50353;51.420;5.682;2023-02-05T11:56:26;103532.16;;;7.57;77.99
64095;BME280;50353;51.420;5.682;2023-02-05T11:59:03;103532.09;;;7.62;77.87
64095;BME280;50353;51.420;5.682;2023-02-05T12:01:32;103518.94;;;7.62;77.77
64095;BME280;50353;51.420;5.682;2023-02-05T12:06:43;103524.25;;;7.57;78.25
64095;BME280;50353;51.420;5.682;2023-02-05T12:09:13;103540.91;;;7.59;78.93
64095;BME280;50353;51.420;5.682;2023-02-05T12:12:00;103544.34;;;7.75;78.48
64095;BME280;50353;51.420;5.682;2023-02-05T12:17:26;103541.69;;;7.77;79.31
64095;BME280;50353;51.420;5.682;2023-02-05T12:29:01;103549.47;;;8.00;77.83
64095;BME280;50353;51.420;5.682;2023-02-05T12:37:14;103542.41;;;8.11;75.98
64095;BME280;50353;51.420;5.682;2023-02-05T12:42:13;103544.97;;;8.19;76.20
64095;BME280;50353;51.420;5.682;2023-02-05T12:50:39;103563.28;;;8.41;76.22
64095;BME280;50353;51.420;5.682;2023-02-05T12:53:30;103541.44;;;8.26;74.37
64095;BME280;50353;51.420;5.682;2023-02-05T12:56:19;103547.63;;;8.16;74.86
64095;BME280;50353;51.420;5.682;2023-02-05T12:58:59;103561.66;;;8.23;75.71
64095;BME280;50353;51.420;5.682;2023-02-05T13:01:38;103530.16;;;8.07;76.01
64095;BME280;50353;51.420;5.682;2023-02-05T13:04:05;103552.03;;;8.16;74.97
64095;BME280;50353;51.420;5.682;2023-02-05T13:06:35;103551.22;;;8.07;75.04
64095;BME280;50353;51.420;5.682;2023-02-05T13:09:11;103538.19;;;7.76;75.95
64095;BME280;50353;51.420;5.682;2023-02-05T13:12:02;103543.25;;;8.13;75.50
64095;BME280;50353;51.420;5.682;2023-02-05T13:14:35;103550.13;;;8.45;73.75
64095;BME280;50353;51.420;5.682;2023-02-05T13:17:10;103556.19;;;8.55;73.02
64095;BME280;50353;51.420;5.682;2023-02-05T13:19:39;103560.72;;;8.35;71.78
64095;BME280;50353;51.420;5.682;2023-02-05T13:22:12;103567.75;;;8.36;72.94
64095;BME280;50353;51.420;5.682;2023-02-05T13:25:02;103568.44;;;8.61;72.49
64095;BME280;50353;51.420;5.682;2023-02-05T13:27:50;103565.38;;;9.10;72.79
64095;BME280;50353;51.420;5.682;2023-02-05T13:30:44;103555.22;;;8.67;72.28
64095;BME280;50353;51.420;5.682;2023-02-05T13:33:11;103586.78;;;8.76;71.98
64095;BME280;50353;51.420;5.682;2023-02-05T13:41:38;103565.03;;;8.48;71.33
64095;BME280;50353;51.420;5.682;2023-02-05T13:50:05;103551.13;;;8.20;71.92
64095;BME280;50353;51.420;5.682;2023-02-05T14:00:26;103599.44;;;8.25;72.65
64095;BME280;50353;51.420;5.682;2023-02-05T14:02:54;103594.19;;;8.12;72.50
64095;BME280;50353;51.420;5.682;2023-02-05T14:05:28;103590.81;;;7.93;74.83
64095;BME280;50353;51.420;5.682;2023-02-05T14:07:56;103601.22;;;8.17;74.82
64095;BME280;50353;51.420;5.682;2023-02-05T14:13:21;103614.47;;;7.98;77.14
64095;BME280;50353;51.420;5.682;2023-02-05T14:15:49;103602.16;;;8.00;77.17
64095;BME280;50353;51.420;5.682;2023-02-05T14:24:01;103607.53;;;7.82;78.59
64095;BME280;50353;51.420;5.682;2023-02-05T14:26:47;103602.28;;;7.74;79.26
64095;BME280;50353;51.420;5.682;2023-02-05T14:32:03;103614.50;;;7.90;75.31
64095;BME280;50353;51.420;5.682;2023-02-05T14:34:44;103596.13;;;7.76;73.98
64095;BME280;50353;51.420;5.682;2023-02-05T14:37:23;103610.94;;;8.02;71.57
64095;BME280;50353;51.420;5.682;2023-02-05T14:39:50;103623.28;;;7.94;70.81
64095;BME280;50353;51.420;5.682;2023-02-05T14:42:19;103589.97;;;7.87;70.27
64095;BME280;50353;51.420;5.682;2023-02-05T14:44:52;103606.63;;;7.89;68.29
64095;BME280;50353;51.420;5.682;2023-02-05T14:47:26;103623.25;;;8.03;69.50